Fletcher, Ohio
Current Conditions -  °F | °C
As of 1:03 AM on Wednesday 22 Oct 2014 (Local Time) from KDAY Reporting Station
Overcast Overcast  
Wind Chill: 40°   Ceiling: 3500
Heat Index: 45°   Visibility: 10mi
Dew Point: 38°   Wind: 9mph
Humidity: 76%   Direction: 360°N
Pressure: 30.2"   Gusts: NA
Location:  40.14°N, 84.11°W
Report Text: KDAY 220503Z 36008KT 10SM OVC035 07/03 A3020 RMK AO2 T00720033
Loading
Personal Weather Stations






























Interactive Weather Map
Tropical Storm Tracking
New forecast layout! Learn more

10-Day Weather Forecast

Advertisements
Track Severe Weather on mobile